createdAt,value
2023-10-23T00:01:39.805Z,17.30
2023-10-23T00:04:12.047Z,15.60
2023-10-23T00:06:45.087Z,15.50
2023-10-23T00:09:17.101Z,14.30
2023-10-23T00:11:48.930Z,14.40
2023-10-23T00:14:20.649Z,12.80
2023-10-23T00:16:52.514Z,12.80
2023-10-23T00:19:24.382Z,11.60
2023-10-23T00:21:56.242Z,11.90
2023-10-23T00:24:28.453Z,10.90
2023-10-23T00:27:00.244Z,10.70
2023-10-23T00:29:32.147Z,10.40
2023-10-23T00:32:04.043Z,9.20
2023-10-23T00:34:35.916Z,8.80
2023-10-23T00:37:07.791Z,9.60
2023-10-23T00:39:39.672Z,9.50
2023-10-23T00:42:11.819Z,9.30
2023-10-23T00:44:43.621Z,8.40
2023-10-23T00:47:17.994Z,8.80
2023-10-23T00:49:49.723Z,9.30
2023-10-23T00:52:21.611Z,9.30
2023-10-23T00:54:53.786Z,9.30
2023-10-23T00:57:25.854Z,8.30
2023-10-23T00:59:57.925Z,9.60
2023-10-23T01:02:29.847Z,8.60
2023-10-23T01:05:02.051Z,9.60
2023-10-23T01:07:33.843Z,11.60
2023-10-23T01:10:06.251Z,11.00
2023-10-23T01:12:38.151Z,11.60
2023-10-23T01:15:11.535Z,12.00
2023-10-23T01:17:43.287Z,13.40
2023-10-23T01:20:16.285Z,14.10
2023-10-23T01:22:48.443Z,14.30
2023-10-23T01:25:20.476Z,15.30
2023-10-23T01:27:52.674Z,15.40
2023-10-23T01:30:24.964Z,17.10
2023-10-23T01:32:56.988Z,17.00
2023-10-23T01:35:29.099Z,17.10
2023-10-23T01:38:00.843Z,17.80
2023-10-23T01:40:32.508Z,18.30
2023-10-23T01:43:04.499Z,17.10
2023-10-23T01:45:36.351Z,16.70
2023-10-23T01:48:09.726Z,18.30
2023-10-23T01:50:41.817Z,17.00
2023-10-23T01:53:13.899Z,16.30
2023-10-23T01:55:45.706Z,16.60
2023-10-23T01:58:17.542Z,16.50
2023-10-23T02:00:49.416Z,14.50
2023-10-23T02:03:21.475Z,14.10
2023-10-23T02:05:54.642Z,13.70
2023-10-23T02:08:26.644Z,14.30
2023-10-23T02:10:58.440Z,14.90
2023-10-23T02:13:30.672Z,14.10
2023-10-23T02:16:02.656Z,13.50
2023-10-23T02:18:34.605Z,14.10
2023-10-23T02:21:06.674Z,14.10
2023-10-23T02:23:53.141Z,14.60
2023-10-23T02:26:26.323Z,15.00
2023-10-23T02:28:58.397Z,14.90
2023-10-23T02:31:30.179Z,14.60
2023-10-23T02:34:01.958Z,13.00
2023-10-23T02:36:33.902Z,13.20
2023-10-23T02:39:06.048Z,12.20
2023-10-23T02:41:37.941Z,12.90
2023-10-23T02:44:10.283Z,13.30
2023-10-23T02:46:42.358Z,13.70
2023-10-23T02:49:14.206Z,13.50
2023-10-23T02:51:46.245Z,12.50
2023-10-23T02:54:18.596Z,12.60
2023-10-23T02:56:50.487Z,12.20
2023-10-23T02:59:22.961Z,12.10
2023-10-23T03:01:55.301Z,12.20
2023-10-23T03:04:27.159Z,12.50
2023-10-23T03:06:59.130Z,12.80
2023-10-23T03:09:30.899Z,12.60
2023-10-23T03:12:03.117Z,13.60
2023-10-23T03:14:35.631Z,13.30
2023-10-23T03:17:07.599Z,13.30
2023-10-23T03:19:39.518Z,13.50
2023-10-23T03:22:11.538Z,13.70
2023-10-23T03:24:43.635Z,14.20
2023-10-23T03:27:15.493Z,14.90
2023-10-23T03:29:47.633Z,14.00
2023-10-23T03:32:19.471Z,14.20
2023-10-23T03:34:51.274Z,14.20
2023-10-23T03:37:22.976Z,14.40
2023-10-23T03:39:54.783Z,14.80
2023-10-23T03:42:26.734Z,15.70
2023-10-23T03:44:58.614Z,17.30
2023-10-23T03:47:30.421Z,17.50
2023-10-23T03:50:02.240Z,20.50
2023-10-23T03:52:34.318Z,19.20
2023-10-23T03:55:07.165Z,20.50
2023-10-23T03:57:39.045Z,20.40
2023-10-23T04:00:12.547Z,21.90
2023-10-23T04:02:44.321Z,21.60
2023-10-23T04:05:16.384Z,20.90
2023-10-23T04:07:48.166Z,21.20
2023-10-23T04:10:20.135Z,21.00
2023-10-23T04:12:52.520Z,20.60
2023-10-23T04:15:24.398Z,21.20
2023-10-23T04:17:56.236Z,19.90
2023-10-23T04:20:28.116Z,21.00
2023-10-23T04:22:59.862Z,20.10
2023-10-23T04:25:31.634Z,19.70
2023-10-23T04:28:04.834Z,19.60
2023-10-23T04:30:36.660Z,19.40
2023-10-23T04:33:08.454Z,19.10
2023-10-23T04:35:40.197Z,19.40
2023-10-23T04:38:12.059Z,18.90
2023-10-23T04:40:45.648Z,19.30
2023-10-23T04:43:17.464Z,5.60
2023-10-23T04:45:50.968Z,18.60
2023-10-23T04:48:23.027Z,18.60
2023-10-23T04:50:59.353Z,18.60
2023-10-23T04:53:31.329Z,17.90
2023-10-23T04:56:05.956Z,17.90
2023-10-23T04:58:37.868Z,18.40
2023-10-23T05:01:18.671Z,18.40
2023-10-23T05:03:52.665Z,18.20
2023-10-23T05:06:28.439Z,19.10
2023-10-23T05:09:00.467Z,19.40
2023-10-23T05:11:32.882Z,17.80
2023-10-23T05:14:05.277Z,17.40
2023-10-23T05:16:37.172Z,17.70
2023-10-23T05:19:09.898Z,18.80
2023-10-23T05:21:41.876Z,18.80
2023-10-23T05:24:14.362Z,19.40
2023-10-23T05:26:46.133Z,19.40
2023-10-23T05:29:17.850Z,18.90
2023-10-23T05:31:49.720Z,19.70
2023-10-23T05:34:21.552Z,19.60
2023-10-23T05:36:53.401Z,18.50
2023-10-23T05:39:25.397Z,20.40
2023-10-23T05:41:57.293Z,19.70
2023-10-23T05:44:29.463Z,21.00
2023-10-23T05:47:01.256Z,21.20
2023-10-23T05:49:35.300Z,21.10
2023-10-23T05:54:37.860Z,21.50
2023-10-23T05:57:09.652Z,21.90
2023-10-23T05:59:41.681Z,21.60
2023-10-23T06:02:15.402Z,20.80
2023-10-23T06:04:47.826Z,23.20
2023-10-23T06:07:19.903Z,23.40
2023-10-23T06:09:53.071Z,23.80
2023-10-23T06:12:25.158Z,23.10
2023-10-23T06:14:58.960Z,23.50
2023-10-23T06:17:30.870Z,24.80
2023-10-23T06:20:04.081Z,24.10
2023-10-23T06:22:36.702Z,25.30
2023-10-23T06:25:09.527Z,25.10
2023-10-23T06:27:41.543Z,24.60
2023-10-23T06:30:15.457Z,27.10
2023-10-23T06:32:47.428Z,27.90
2023-10-23T06:35:19.390Z,26.60
2023-10-23T06:37:51.579Z,29.60
2023-10-23T06:40:23.704Z,28.10
2023-10-23T06:42:58.858Z,27.90
2023-10-23T06:45:42.561Z,30.30
2023-10-23T06:48:22.802Z,30.50
2023-10-23T06:50:58.046Z,30.50
2023-10-23T06:53:30.527Z,30.20
2023-10-23T06:56:02.292Z,29.00
2023-10-23T06:58:34.252Z,31.30
2023-10-23T07:01:09.980Z,31.00
2023-10-23T07:03:42.290Z,31.70
2023-10-23T07:06:14.414Z,32.70
2023-10-23T07:08:46.497Z,32.30
2023-10-23T07:11:20.422Z,34.20
2023-10-23T07:13:52.147Z,32.90
2023-10-23T07:16:24.210Z,31.20
2023-10-23T07:18:56.662Z,32.30
2023-10-23T07:21:31.280Z,31.40
2023-10-23T07:24:04.972Z,29.90
2023-10-23T07:26:36.937Z,30.20
2023-10-23T07:29:09.699Z,30.20
2023-10-23T07:31:41.587Z,30.20
2023-10-23T07:34:13.696Z,30.60
2023-10-23T07:36:45.554Z,29.40
2023-10-23T07:39:19.469Z,29.60
2023-10-23T07:44:22.261Z,28.70
2023-10-23T07:46:54.143Z,27.40
2023-10-23T07:49:27.037Z,27.10
2023-10-23T07:51:58.937Z,25.00
2023-10-23T07:54:32.424Z,26.70
2023-10-23T07:57:04.356Z,26.40
2023-10-23T07:59:36.327Z,26.40
2023-10-23T08:02:08.363Z,27.50
2023-10-23T08:04:41.498Z,26.80
2023-10-23T08:07:13.518Z,27.40
2023-10-23T08:09:45.512Z,28.70
2023-10-23T08:12:17.641Z,27.70
2023-10-23T08:14:49.482Z,27.80
2023-10-23T08:17:41.396Z,30.10
2023-10-23T08:20:14.577Z,27.60
2023-10-23T08:22:46.439Z,29.30
2023-10-23T08:25:18.465Z,27.90
2023-10-23T08:27:50.630Z,27.00
2023-10-23T08:30:22.627Z,26.40
2023-10-23T08:32:54.696Z,30.10
2023-10-23T08:35:29.305Z,27.70
2023-10-23T08:38:03.949Z,26.20
2023-10-23T08:40:35.784Z,25.90
2023-10-23T08:43:08.539Z,28.40
2023-10-23T08:45:42.199Z,28.20
2023-10-23T08:48:14.418Z,28.70
2023-10-23T08:50:46.759Z,27.50
2023-10-23T08:53:19.249Z,28.80
2023-10-23T08:55:52.763Z,27.80
2023-10-23T08:58:25.006Z,26.80
2023-10-23T09:00:57.084Z,27.20
2023-10-23T09:04:04.209Z,25.70
2023-10-23T09:06:22.138Z,25.60
2023-10-23T09:08:54.255Z,24.10
2023-10-23T09:11:40.790Z,23.60
2023-10-23T09:14:12.952Z,26.80
2023-10-23T09:16:45.086Z,25.50
2023-10-23T09:19:27.387Z,25.20
2023-10-23T09:22:00.278Z,26.40
2023-10-23T09:24:32.312Z,25.50
2023-10-23T09:27:04.610Z,25.60
2023-10-23T09:29:36.663Z,25.00
2023-10-23T09:32:09.571Z,25.20
2023-10-23T09:34:45.832Z,23.50
2023-10-23T09:37:18.150Z,26.20
2023-10-23T09:39:53.058Z,24.10
2023-10-23T09:42:34.479Z,24.70
2023-10-23T09:45:08.044Z,24.90
2023-10-23T09:47:40.091Z,23.70
2023-10-23T09:50:13.831Z,23.30
2023-10-23T09:55:17.001Z,21.60
2023-10-23T09:57:49.534Z,21.40
2023-10-23T10:00:22.402Z,20.40
2023-10-23T10:02:57.084Z,19.90
2023-10-23T10:05:35.460Z,20.80
2023-10-23T10:08:09.528Z,19.60
2023-10-23T10:10:42.130Z,20.10
2023-10-23T10:13:14.827Z,20.70
2023-10-23T10:15:47.347Z,20.30
2023-10-23T10:18:19.780Z,20.30
2023-10-23T10:21:02.255Z,19.80
2023-10-23T10:23:36.454Z,21.90
2023-10-23T10:26:08.737Z,19.40
2023-10-23T10:28:42.880Z,21.10
2023-10-23T10:31:19.896Z,18.60
2023-10-23T10:34:27.699Z,18.20
2023-10-23T10:36:48.902Z,19.40
2023-10-23T10:39:20.834Z,19.50
2023-10-23T10:41:55.072Z,16.60
2023-10-23T10:44:27.308Z,18.60
2023-10-23T10:47:00.660Z,16.80
2023-10-23T10:49:36.456Z,17.60
2023-10-23T10:52:29.953Z,17.20
2023-10-23T10:55:03.466Z,18.60
2023-10-23T10:57:36.456Z,20.00
2023-10-23T11:00:11.023Z,18.50
2023-10-23T11:02:43.068Z,19.10
2023-10-23T11:05:15.882Z,18.60
2023-10-23T11:07:51.501Z,20.20
2023-10-23T11:10:23.715Z,20.00
2023-10-23T11:12:55.667Z,19.10
2023-10-23T11:15:27.746Z,18.80
2023-10-23T11:17:59.743Z,19.20
2023-10-23T11:20:33.408Z,20.20
2023-10-23T11:23:06.153Z,20.30
2023-10-23T11:25:37.899Z,20.40
2023-10-23T11:28:10.081Z,21.00
2023-10-23T11:30:50.129Z,20.50
2023-10-23T11:33:24.113Z,19.50
2023-10-23T11:35:56.883Z,19.20
2023-10-23T11:38:30.301Z,20.70
2023-10-23T11:41:02.217Z,20.70
2023-10-23T11:43:34.772Z,20.00
2023-10-23T11:46:06.802Z,19.50
2023-10-23T11:48:38.685Z,19.10
2023-10-23T11:51:12.149Z,19.70
2023-10-23T11:53:43.960Z,18.70
2023-10-23T11:56:15.719Z,19.50
2023-10-23T11:58:49.422Z,18.30
2023-10-23T12:01:26.077Z,17.30
2023-10-23T12:03:58.157Z,31.70
2023-10-23T12:06:30.226Z,28.90
2023-10-23T12:09:02.428Z,18.30
2023-10-23T12:11:35.129Z,16.30
2023-10-23T12:14:07.324Z,16.00
2023-10-23T12:16:39.590Z,17.70
2023-10-23T12:19:11.606Z,16.20
2023-10-23T12:21:43.406Z,14.60
2023-10-23T12:24:15.227Z,14.20
2023-10-23T12:26:47.401Z,13.90
2023-10-23T12:29:19.263Z,13.60
2023-10-23T12:32:01.938Z,12.30
2023-10-23T12:34:35.807Z,13.00
2023-10-23T12:37:07.834Z,12.60
2023-10-23T12:39:40.188Z,11.80
2023-10-23T12:42:12.200Z,10.60
2023-10-23T12:44:45.993Z,11.90
2023-10-23T12:49:48.610Z,10.50
2023-10-23T12:52:20.528Z,11.10
2023-10-23T12:54:52.273Z,11.70
2023-10-23T12:57:24.111Z,11.30
2023-10-23T12:59:55.988Z,11.60
2023-10-23T13:02:28.087Z,10.80
2023-10-23T13:05:01.319Z,11.80
2023-10-23T13:07:37.010Z,11.00
2023-10-23T13:10:11.631Z,11.30
2023-10-23T13:12:43.484Z,10.30
2023-10-23T13:15:15.475Z,10.60
2023-10-23T13:17:47.574Z,10.20
2023-10-23T13:21:28.108Z,9.30
2023-10-23T13:23:12.840Z,9.10
2023-10-23T13:25:58.015Z,8.70
2023-10-23T13:28:35.478Z,8.90
2023-10-23T13:31:07.336Z,9.40
2023-10-23T13:33:39.674Z,8.50
2023-10-23T13:36:11.879Z,9.00
2023-10-23T13:38:43.814Z,8.60
2023-10-23T13:41:15.790Z,8.00
2023-10-23T13:43:48.190Z,8.70
2023-10-23T13:46:21.465Z,8.90
2023-10-23T13:48:54.241Z,8.80
2023-10-23T13:51:26.394Z,9.20
2023-10-23T13:53:58.206Z,9.40
2023-10-23T13:56:30.032Z,9.20
2023-10-23T13:59:03.244Z,9.90
2023-10-23T14:01:37.529Z,10.50
2023-10-23T14:04:09.959Z,9.10
2023-10-23T14:06:42.121Z,10.20
2023-10-23T14:09:43.934Z,9.60
2023-10-23T14:12:06.488Z,10.10
2023-10-23T14:14:38.758Z,10.10
2023-10-23T14:17:10.976Z,9.60
2023-10-23T14:19:48.592Z,9.70
2023-10-23T14:22:21.179Z,10.00
2023-10-23T14:24:53.104Z,9.10
2023-10-23T14:27:25.066Z,9.90
2023-10-23T14:29:57.036Z,9.40
2023-10-23T14:32:29.199Z,9.40
2023-10-23T14:35:02.044Z,9.90
2023-10-23T14:37:34.028Z,9.70
2023-10-23T14:40:08.973Z,9.00
2023-10-23T14:42:40.955Z,8.70
2023-10-23T14:45:13.907Z,9.60
2023-10-23T14:47:45.996Z,8.80
2023-10-23T14:50:18.196Z,9.00
2023-10-23T14:52:50.823Z,8.90
2023-10-23T14:55:22.831Z,10.20
2023-10-23T14:57:54.804Z,9.10
2023-10-23T15:00:27.022Z,10.30
2023-10-23T15:02:58.939Z,9.30
2023-10-23T15:05:33.063Z,10.20
2023-10-23T15:10:39.682Z,10.60
2023-10-23T15:13:11.941Z,10.70
2023-10-23T15:15:44.158Z,11.50
2023-10-23T15:18:16.045Z,11.30
2023-10-23T15:20:47.941Z,11.00
2023-10-23T15:23:19.798Z,10.20
2023-10-23T15:25:53.692Z,10.90
2023-10-23T15:31:01.063Z,11.80
2023-10-23T15:33:33.266Z,10.90
2023-10-23T15:36:06.410Z,9.80
2023-10-23T15:38:40.112Z,11.00
2023-10-23T15:41:15.437Z,10.90
2023-10-23T15:43:48.759Z,10.70
2023-10-23T15:46:20.741Z,11.90
2023-10-23T15:48:52.973Z,11.80
2023-10-23T15:51:24.800Z,11.30
2023-10-23T15:53:57.149Z,11.50
2023-10-23T15:56:30.194Z,11.80
2023-10-23T15:59:02.154Z,11.90
2023-10-23T16:01:34.005Z,11.80
2023-10-23T16:04:06.480Z,11.50
2023-10-23T16:06:39.264Z,12.10
2023-10-23T16:09:24.540Z,12.90
2023-10-23T16:12:09.739Z,13.20
2023-10-23T16:14:55.836Z,14.00
2023-10-23T16:17:29.353Z,14.90
2023-10-23T16:20:01.165Z,13.90
2023-10-23T16:22:33.021Z,13.80
2023-10-23T16:25:05.901Z,14.30
2023-10-23T16:27:39.177Z,14.00
2023-10-23T16:30:12.134Z,15.80
2023-10-23T16:32:46.254Z,14.70
2023-10-23T16:35:18.431Z,13.90
2023-10-23T16:37:50.243Z,13.50
2023-10-23T16:40:22.259Z,13.40
2023-10-23T16:42:54.209Z,14.10
2023-10-23T16:45:27.332Z,14.50
2023-10-23T16:47:59.420Z,15.50
2023-10-23T16:50:31.340Z,15.30
2023-10-23T16:53:05.128Z,16.60
2023-10-23T16:55:38.226Z,15.60
2023-10-23T16:58:10.372Z,15.90
2023-10-23T17:00:42.234Z,16.00
2023-10-23T17:03:14.211Z,17.30
2023-10-23T17:05:46.644Z,16.70
2023-10-23T17:08:19.501Z,17.00
2023-10-23T17:10:51.369Z,16.20
2023-10-23T17:13:23.310Z,17.00
2023-10-23T17:15:55.138Z,17.50
2023-10-23T17:18:26.934Z,16.80
2023-10-23T17:20:58.817Z,16.90
2023-10-23T17:23:31.156Z,17.30
2023-10-23T17:26:03.314Z,17.30
2023-10-23T17:28:37.364Z,17.10
2023-10-23T17:33:40.318Z,15.90
2023-10-23T17:36:12.278Z,17.00
2023-10-23T17:38:46.841Z,16.90
2023-10-23T17:41:19.009Z,18.00
2023-10-23T17:43:50.893Z,17.10
2023-10-23T17:46:22.756Z,18.50
2023-10-23T17:48:55.907Z,18.00
2023-10-23T17:51:28.476Z,18.10
2023-10-23T17:54:05.637Z,17.00
2023-10-23T17:56:38.016Z,16.90
2023-10-23T17:59:09.891Z,17.40
2023-10-23T18:01:43.901Z,18.20
2023-10-23T18:04:16.144Z,18.30
2023-10-23T18:06:48.615Z,18.10
2023-10-23T18:09:20.502Z,19.60
2023-10-23T18:11:52.414Z,18.20
2023-10-23T18:14:24.263Z,18.30
2023-10-23T18:16:56.149Z,18.10
2023-10-23T18:19:28.224Z,19.10
2023-10-23T18:22:00.364Z,18.70
2023-10-23T18:24:32.375Z,20.10
2023-10-23T18:27:04.337Z,22.20
2023-10-23T18:29:38.165Z,22.10
2023-10-23T18:32:10.228Z,21.40
2023-10-23T18:34:42.911Z,21.70
2023-10-23T18:37:14.718Z,20.80
2023-10-23T18:39:47.075Z,20.00
2023-10-23T18:42:18.989Z,19.00
2023-10-23T18:44:50.926Z,20.40
2023-10-23T18:47:23.280Z,21.30
2023-10-23T18:49:55.407Z,20.40
2023-10-23T18:52:27.292Z,20.50
2023-10-23T18:54:59.194Z,21.20
2023-10-23T18:57:31.138Z,21.10
2023-10-23T19:00:03.026Z,21.80
2023-10-23T19:02:37.271Z,23.40
2023-10-23T19:05:11.813Z,24.90
2023-10-23T19:07:43.619Z,24.50
2023-10-23T19:10:15.995Z,25.00
2023-10-23T19:12:48.143Z,25.50
2023-10-23T19:15:20.025Z,27.00
2023-10-23T19:17:54.890Z,28.50
2023-10-23T19:20:26.977Z,29.80
2023-10-23T19:22:59.294Z,29.50
2023-10-23T19:25:31.102Z,31.50
2023-10-23T19:28:04.911Z,31.80
2023-10-23T19:33:08.576Z,17.30
2023-10-23T19:35:41.964Z,29.80
2023-10-23T19:38:14.737Z,33.80
2023-10-23T19:40:48.945Z,31.40
2023-10-23T19:43:25.163Z,32.40
2023-10-23T19:45:58.286Z,29.30
2023-10-23T19:48:31.324Z,30.60
2023-10-23T19:51:05.363Z,31.20
2023-10-23T19:56:19.953Z,15.90
2023-10-23T19:59:01.608Z,27.20
2023-10-23T20:01:33.522Z,26.90
2023-10-23T20:04:05.960Z,19.00
2023-10-23T20:06:38.399Z,29.20
2023-10-23T20:09:11.101Z,33.80
2023-10-23T20:11:42.965Z,23.40
2023-10-23T20:14:16.911Z,37.30
2023-10-23T20:19:19.562Z,18.70
2023-10-23T20:21:52.944Z,38.50
2023-10-23T20:24:24.731Z,17.80
2023-10-23T20:26:57.137Z,40.70
2023-10-23T20:29:28.990Z,24.80
2023-10-23T20:32:00.948Z,26.10
2023-10-23T20:34:32.980Z,43.50
2023-10-23T20:37:05.062Z,29.40
2023-10-23T20:39:37.072Z,43.50
2023-10-23T20:42:09.126Z,25.40
2023-10-23T20:44:40.834Z,43.70
2023-10-23T20:47:15.761Z,44.30
2023-10-23T20:49:47.985Z,44.60
2023-10-23T20:52:20.061Z,23.70
2023-10-23T20:54:52.306Z,43.40
2023-10-23T20:57:24.166Z,22.80
2023-10-23T20:59:55.908Z,45.00
2023-10-23T21:02:27.903Z,29.30
2023-10-23T21:05:00.427Z,44.40
2023-10-23T21:07:32.275Z,26.90
2023-10-23T21:10:04.537Z,21.60
2023-10-23T21:12:36.652Z,44.10
2023-10-23T21:15:10.241Z,43.00
2023-10-23T21:17:42.422Z,36.80
2023-10-23T21:20:16.450Z,46.00
2023-10-23T21:22:48.957Z,34.00
2023-10-23T21:25:23.978Z,47.60
2023-10-23T21:27:58.263Z,20.40
2023-10-23T21:30:30.049Z,43.60
2023-10-23T21:33:04.103Z,32.30
2023-10-23T21:38:06.332Z,18.30
2023-10-23T21:40:38.322Z,32.00
2023-10-23T21:43:10.168Z,42.90
2023-10-23T21:45:42.494Z,33.00
2023-10-23T21:48:15.333Z,32.30
2023-10-23T21:50:48.517Z,46.10
2023-10-23T21:53:21.569Z,20.30
2023-10-23T21:55:56.175Z,42.60
2023-10-23T21:59:04.985Z,18.70
2023-10-23T22:01:25.805Z,45.50
2023-10-23T22:03:58.639Z,27.40
2023-10-23T22:06:31.432Z,27.00
2023-10-23T22:09:05.385Z,42.60
2023-10-23T22:11:38.028Z,16.60
2023-10-23T22:14:11.554Z,42.80
2023-10-23T22:16:43.438Z,18.30
2023-10-23T22:19:15.736Z,16.70
2023-10-23T22:21:47.590Z,39.40
2023-10-23T22:24:19.410Z,27.80
2023-10-23T22:26:51.610Z,33.60
2023-10-23T22:29:23.386Z,43.80
2023-10-23T22:31:56.558Z,23.70
2023-10-23T22:34:28.864Z,28.80
2023-10-23T22:37:54.814Z,45.10
2023-10-23T22:39:53.057Z,23.70
2023-10-23T22:42:24.910Z,23.80
2023-10-23T22:44:58.372Z,28.70
2023-10-23T22:47:30.207Z,23.70
2023-10-23T22:50:03.535Z,25.00
2023-10-23T22:52:37.729Z,31.80
2023-10-23T22:55:13.553Z,45.60
2023-10-23T22:57:47.896Z,27.80
2023-10-23T23:00:21.412Z,30.60
2023-10-23T23:02:57.114Z,47.20
2023-10-23T23:05:30.342Z,27.50
2023-10-23T23:08:03.461Z,34.10
2023-10-23T23:10:36.735Z,24.50
2023-10-23T23:13:09.474Z,29.90
2023-10-23T23:15:42.538Z,22.20
2023-10-23T23:18:16.690Z,23.90
2023-10-23T23:20:51.918Z,28.50
2023-10-23T23:23:23.895Z,23.70
2023-10-23T23:25:56.578Z,42.10
2023-10-23T23:28:28.893Z,19.40
2023-10-23T23:31:00.796Z,23.40
2023-10-23T23:33:33.132Z,25.40
2023-10-23T23:36:05.137Z,23.10
2023-10-23T23:38:38.370Z,22.30
2023-10-23T23:41:10.414Z,36.80
2023-10-23T23:43:42.300Z,26.80
2023-10-23T23:46:14.241Z,30.60
2023-10-23T23:48:46.178Z,30.90
2023-10-23T23:51:17.915Z,20.00
2023-10-23T23:53:49.685Z,20.20
2023-10-23T23:56:21.904Z,26.80
2023-10-23T23:58:53.741Z,40.80
